Time;durP1;ratioP1;P1;durP2;ratioP2;P2;SDS_P1;SDS_P2;PMS_P1;PMS_P2;Temp;Humidity;BMP_temperature;BMP_pressure;BME280_temperature;BME280_humidity;BME280_pressure;Samples;Min_cycle;Max_cycle;Signal;HPM_P1;HPM_P2
2021/05/10 00:01:18;;;;;;;1.58;1.17;;;17.40;91.70;;;;;;4920009;29;20024;-76
2021/05/10 00:03:44;;;;;;;1.50;1.40;;;17.30;92.00;;;;;;4914971;29;20012;-76
2021/05/10 00:06:10;;;;;;;1.30;1.20;;;17.20;92.20;;;;;;4915014;29;20408;-76
2021/05/10 00:08:35;;;;;;;1.55;1.08;;;17.20;92.50;;;;;;4914955;29;20600;-76
2021/05/10 00:11:01;;;;;;;1.30;1.20;;;17.20;92.60;;;;;;4914660;29;20124;-76
2021/05/10 00:13:28;;;;;;;3.15;1.10;;;17.20;92.60;;;;;;4897589;29;20498;-76
2021/05/10 00:15:54;;;;;;;1.92;1.30;;;17.10;92.60;;;;;;4914649;29;20810;-76
2021/05/10 00:18:20;;;;;;;3.25;1.30;;;17.10;92.60;;;;;;4914784;29;20115;-76
2021/05/10 00:20:47;;;;;;;1.50;1.08;;;17.10;92.70;;;;;;4899306;29;20160;-76
2021/05/10 00:23:14;;;;;;;2.22;1.40;;;17.00;92.90;;;;;;4916357;29;20037;-76
2021/05/10 00:25:41;;;;;;;3.22;1.10;;;16.90;93.00;;;;;;4899440;29;20056;-76
2021/05/10 00:28:07;;;;;;;3.10;1.60;;;17.00;92.90;;;;;;4916026;29;20036;-76
2021/05/10 00:30:33;;;;;;;2.15;1.50;;;17.00;92.90;;;;;;4899266;29;20058;-76
2021/05/10 00:33:00;;;;;;;6.63;1.40;;;17.00;92.60;;;;;;4916297;29;20036;-76
2021/05/10 00:35:26;;;;;;;1.98;1.40;;;17.10;92.70;;;;;;4898934;29;20630;-76
2021/05/10 00:37:52;;;;;;;1.83;1.65;;;17.00;92.70;;;;;;4915972;29;20079;-76
2021/05/10 00:40:21;;;;;;;3.60;1.58;;;17.10;92.70;;;;;;4916112;29;20032;-76
2021/05/10 00:42:48;;;;;;;2.17;1.20;;;17.10;92.70;;;;;;4915883;29;20027;-76
2021/05/10 00:45:14;;;;;;;1.40;1.30;;;17.00;92.80;;;;;;4915801;29;20024;-76
2021/05/10 00:47:40;;;;;;;1.08;1.00;;;17.10;92.90;;;;;;4898613;29;20461;-76
2021/05/10 00:50:08;;;;;;;2.58;1.17;;;17.00;93.10;;;;;;4916049;29;20039;-76
2021/05/10 00:52:34;;;;;;;1.98;1.40;;;17.00;93.00;;;;;;4915657;29;20028;-76
2021/05/10 00:55:01;;;;;;;1.60;1.50;;;17.00;93.20;;;;;;4915589;29;20036;-76
2021/05/10 00:57:32;;;;;;;3.53;1.50;;;17.00;93.20;;;;;;4915701;29;20028;-76
2021/05/10 00:59:59;;;;;;;1.17;1.07;;;16.90;93.40;;;;;;4915861;29;20025;-76
2021/05/10 01:02:24;;;;;;;3.40;1.48;;;16.90;93.50;;;;;;4898585;29;20874;-76
2021/05/10 01:04:50;;;;;;;3.03;1.48;;;16.90;93.60;;;;;;4915207;29;20103;-76
2021/05/10 01:07:16;;;;;;;2.67;1.40;;;16.80;93.70;;;;;;4915676;29;20035;-76
2021/05/10 01:09:41;;;;;;;2.95;1.20;;;16.70;93.90;;;;;;4898784;29;20126;-76
2021/05/10 01:12:07;;;;;;;1.80;1.58;;;16.60;94.10;;;;;;4915311;29;20634;-76
2021/05/10 01:14:34;;;;;;;2.35;1.20;;;16.60;94.20;;;;;;4915546;29;20035;-76
2021/05/10 01:17:01;;;;;;;2.22;1.60;;;16.60;94.10;;;;;;4915501;29;20035;-76
2021/05/10 01:19:28;;;;;;;1.75;1.38;;;16.70;94.20;;;;;;4904346;29;20044;-76
2021/05/10 01:21:57;;;;;;;1.75;1.33;;;16.60;94.10;;;;;;4896581;29;20047;-76
2021/05/10 01:24:24;;;;;;;2.13;1.30;;;16.60;94.20;;;;;;4896583;29;20093;-76
2021/05/10 01:26:50;;;;;;;3.35;1.42;;;16.60;94.60;;;;;;4896638;29;20020;-76
2021/05/10 01:29:17;;;;;;;1.98;1.40;;;16.60;94.80;;;;;;4915368;29;20455;-76
2021/05/10 01:31:43;;;;;;;2.42;1.15;;;16.60;94.80;;;;;;4915299;29;20055;-76
2021/05/10 01:34:08;;;;;;;3.03;1.63;;;16.50;94.80;;;;;;4915360;29;20491;-76
2021/05/10 01:36:34;;;;;;;3.30;1.38;;;16.50;94.80;;;;;;4915211;29;20036;-76
2021/05/10 01:39:00;;;;;;;3.78;1.13;;;16.50;94.80;;;;;;4915186;29;20024;-76
2021/05/10 01:41:25;;;;;;;2.60;1.30;;;16.50;95.00;;;;;;4915369;29;20504;-76
2021/05/10 01:43:51;;;;;;;1.33;1.23;;;16.50;95.00;;;;;;4914990;29;20047;-76
2021/05/10 01:46:17;;;;;;;1.17;1.17;;;16.50;95.00;;;;;;4915160;29;20405;-76
2021/05/10 01:48:42;;;;;;;1.92;1.48;;;16.50;94.90;;;;;;4915327;29;20031;-77
2021/05/10 01:51:08;;;;;;;3.00;1.55;;;16.40;94.90;;;;;;4915197;29;20072;-76
2021/05/10 01:53:34;;;;;;;1.55;1.42;;;16.40;95.00;;;;;;4915028;29;20024;-76
2021/05/10 01:56:00;;;;;;;3.00;1.83;;;16.40;95.10;;;;;;4898002;29;20051;-76
2021/05/10 01:58:26;;;;;;;3.10;1.40;;;16.40;95.30;;;;;;4915003;29;20039;-76
2021/05/10 02:00:52;;;;;;;3.03;1.30;;;16.40;95.30;;;;;;4898245;29;20028;-77
2021/05/10 02:03:19;;;;;;;1.77;1.38;;;16.40;95.10;;;;;;4914991;29;20051;-76
2021/05/10 02:05:46;;;;;;;1.58;1.45;;;16.40;95.10;;;;;;4914870;29;20560;-77
2021/05/10 02:08:13;;;;;;;2.67;1.30;;;16.40;95.30;;;;;;4914932;29;20032;-76
2021/05/10 02:10:41;;;;;;;1.70;1.60;;;16.30;95.20;;;;;;4898096;29;20445;-76
2021/05/10 02:13:13;;;;;;;6.35;1.33;;;16.20;95.50;;;;;;4914993;29;20456;-76
2021/05/10 02:15:44;;;;;;;6.85;1.42;;;16.10;95.80;;;;;;4897697;29;20059;-76
2021/05/10 02:18:12;;;;;;;3.88;1.58;;;16.10;95.90;;;;;;4918330;29;20484;-76
2021/05/10 02:20:39;;;;;;;1.95;1.35;;;16.10;96.10;;;;;;4901277;29;20056;-76
2021/05/10 02:23:09;;;;;;;2.67;1.63;;;16.00;96.30;;;;;;4918233;29;20053;-77
2021/05/10 02:25:59;;;;;;;5.90;1.35;;;16.10;96.30;;;;;;4918260;29;20020;-77
2021/05/10 02:28:27;;;;;;;2.60;1.70;;;16.10;96.40;;;;;;4900654;29;20471;-76
2021/05/10 02:30:55;;;;;;;2.35;1.35;;;16.10;96.30;;;;;;4918115;29;20075;-76
2021/05/10 02:33:27;;;;;;;1.45;1.35;;;15.90;96.80;;;;;;4918202;29;20063;-77
2021/05/10 02:35:53;;;;;;;;;;;15.90;97.10;;;;;;4901590;29;20551;-77
2021/05/10 02:38:20;;;;;;;5.68;1.83;;;15.90;97.00;;;;;;4901153;29;19957;-75
2021/05/10 02:40:48;;;;;;;1.75;1.30;;;15.90;96.90;;;;;;4918000;29;20024;-75
2021/05/10 02:43:15;;;;;;;1.73;1.63;;;15.90;96.70;;;;;;4917908;29;20056;-75
2021/05/10 02:45:41;;;;;;;2.63;2.03;;;16.00;96.40;;;;;;4917741;29;20572;-75
2021/05/10 02:48:07;;;;;;;2.72;1.40;;;16.00;96.10;;;;;;4917878;29;20496;-75
2021/05/10 02:50:33;;;;;;;2.20;1.20;;;16.10;96.00;;;;;;4917880;29;20051;-74
2021/05/10 02:53:00;;;;;;;2.65;1.50;;;16.10;96.20;;;;;;4917826;29;20484;-75
2021/05/10 02:55:26;;;;;;;2.03;1.60;;;16.10;96.20;;;;;;4917762;29;20036;-74
2021/05/10 02:57:55;;;;;;;2.25;1.67;;;16.10;96.10;;;;;;4917556;29;20392;-74
2021/05/10 03:00:26;;;;;;;1.63;1.52;;;16.10;96.10;;;;;;4917573;29;20091;-74
2021/05/10 03:02:52;;;;;;;1.77;1.63;;;16.20;96.40;;;;;;4917521;29;20012;-74
2021/05/10 03:05:19;;;;;;;1.52;1.33;;;16.10;96.20;;;;;;4917696;29;20089;-74
2021/05/10 03:07:45;;;;;;;1.98;1.40;;;16.10;96.20;;;;;;4917514;29;20059;-74
2021/05/10 03:10:16;;;;;;;2.22;1.55;;;16.10;96.60;;;;;;4917419;29;20527;-74
2021/05/10 03:12:43;;;;;;;2.90;1.70;;;16.10;96.40;;;;;;4917380;29;20032;-75
2021/05/10 03:15:11;;;;;;;1.85;1.63;;;16.10;96.50;;;;;;4906786;29;20456;-75
2021/05/10 03:17:38;;;;;;;2.92;1.60;;;16.10;96.50;;;;;;4898646;29;20031;-75
2021/05/10 03:20:06;;;;;;;2.53;2.00;;;16.10;96.50;;;;;;4898476;29;20025;-74
2021/05/10 03:22:32;;;;;;;4.25;1.55;;;16.10;96.50;;;;;;4898387;29;20029;-74
2021/05/10 03:24:58;;;;;;;2.80;1.40;;;16.10;96.50;;;;;;4881570;29;20053;-75
2021/05/10 03:27:24;;;;;;;1.67;1.52;;;16.10;96.50;;;;;;4887046;29;20477;-75
2021/05/10 03:29:50;;;;;;;1.80;1.70;;;16.00;96.70;;;;;;4917116;29;20051;-75
2021/05/10 03:32:16;;;;;;;2.65;1.30;;;15.90;97.00;;;;;;4917103;29;20461;-75
2021/05/10 03:34:42;;;;;;;2.10;1.42;;;15.90;97.20;;;;;;4917226;29;20043;-75
2021/05/10 03:37:08;;;;;;;4.72;1.70;;;15.90;97.30;;;;;;4916766;29;20374;-75
2021/05/10 03:39:34;;;;;;;2.72;1.92;;;15.90;97.50;;;;;;4899985;29;20031;-75
2021/05/10 03:41:59;;;;;;;2.50;1.33;;;15.80;97.70;;;;;;4917050;29;20049;-75
2021/05/10 03:44:25;;;;;;;2.88;1.40;;;15.80;97.90;;;;;;4916790;29;20028;-75
2021/05/10 03:46:51;;;;;;;1.50;1.40;;;15.80;98.00;;;;;;4916603;29;20055;-75
2021/05/10 03:49:16;;;;;;;1.48;1.38;;;15.80;98.10;;;;;;4916752;29;20068;-75
2021/05/10 03:51:42;;;;;;;3.75;1.48;;;15.80;98.10;;;;;;4899661;29;20024;-75
2021/05/10 03:54:08;;;;;;;1.73;1.50;;;15.80;98.20;;;;;;4916630;29;20036;-75
2021/05/10 03:56:34;;;;;;;2.38;1.50;;;15.80;98.30;;;;;;4899661;29;20024;-75
2021/05/10 03:59:00;;;;;;;1.60;1.50;;;15.80;98.30;;;;;;4916400;29;20020;-75
2021/05/10 04:01:25;;;;;;;2.78;1.63;;;15.70;98.50;;;;;;4916652;29;20024;-75
2021/05/10 04:14:24;;;;;;;3.63;1.90;;;15.40;99.90;;;;;;4916434;29;20128;-75
2021/05/10 04:16:50;;;;;;;2.92;1.65;;;15.40;99.90;;;;;;4916042;29;20038;-75
2021/05/10 04:19:16;;;;;;;7.57;1.80;;;15.40;99.90;;;;;;4916463;29;20503;-75
2021/05/10 04:21:43;;;;;;;1.63;1.45;;;15.40;99.90;;;;;;4916107;29;20075;-74
2021/05/10 04:24:09;;;;;;;1.95;1.80;;;15.30;99.90;;;;;;4899405;23;20080;-77
2021/05/10 04:26:35;;;;;;;6.07;1.60;;;15.20;99.90;;;;;;4861972;29;20049;-77
2021/05/10 04:29:01;;;;;;;2.10;1.85;;;15.30;99.90;;;;;;4878497;29;20059;-77
2021/05/10 04:31:26;;;;;;;2.03;1.92;;;15.30;99.90;;;;;;4878769;29;20029;-77
2021/05/10 04:33:52;;;;;;;4.80;1.90;;;15.30;99.90;;;;;;4878325;29;20029;-76
2021/05/10 04:36:18;;;;;;;4.20;2.05;;;15.30;99.90;;;;;;4877212;29;20043;-76
2021/05/10 04:38:44;;;;;;;2.20;1.60;;;15.30;99.90;;;;;;4878027;29;20065;-77
2021/05/10 04:41:10;;;;;;;1.50;1.40;;;15.40;99.90;;;;;;4876905;29;20124;-77
2021/05/10 04:43:37;;;;;;;4.15;2.00;;;15.40;99.90;;;;;;4878359;29;20590;-77
2021/05/10 04:46:02;;;;;;;2.58;1.63;;;15.40;99.90;;;;;;4878246;29;20036;-77
2021/05/10 04:48:28;;;;;;;2.97;1.70;;;15.40;99.90;;;;;;4878400;29;20397;-77
2021/05/10 04:50:55;;;;;;;2.15;1.42;;;15.40;99.90;;;;;;4878070;29;20051;-77
2021/05/10 04:53:20;;;;;;;1.90;1.80;;;15.40;99.90;;;;;;4878197;29;20061;-76
2021/05/10 04:55:46;;;;;;;1.40;1.30;;;15.40;99.90;;;;;;4878094;29;20059;-76
2021/05/10 04:58:12;;;;;;;1.52;1.42;;;15.50;99.90;;;;;;4878133;29;20060;-76
2021/05/10 05:00:37;;;;;;;2.80;2.00;;;15.50;99.90;;;;;;4876983;29;20511;-76
2021/05/10 05:03:04;;;;;;;3.30;1.98;;;15.50;99.90;;;;;;4877453;29;20541;-76
2021/05/10 05:05:29;;;;;;;2.03;1.55;;;15.50;99.90;;;;;;4876002;29;20037;-76
2021/05/10 05:07:55;;;;;;;2.30;2.05;;;15.60;99.90;;;;;;4879868;29;20048;-76
2021/05/10 05:10:21;;;;;;;3.40;1.83;;;15.70;99.90;;;;;;4878115;29;20025;-76
2021/05/10 05:12:50;;;;;;;6.45;2.05;;;15.70;99.90;;;;;;4861207;29;20035;-76
2021/05/10 05:15:18;;;;;;;2.50;1.92;;;15.70;99.90;;;;;;4877967;29;20025;-77
2021/05/10 05:17:44;;;;;;;2.25;1.50;;;15.70;99.90;;;;;;4877692;29;20089;-76
2021/05/10 05:20:11;;;;;;;1.95;1.70;;;15.70;99.90;;;;;;4877583;29;20044;-77
2021/05/10 05:22:37;;;;;;;4.13;1.80;;;15.80;99.90;;;;;;4877866;29;20081;-76
2021/05/10 05:25:07;;;;;;;3.45;1.95;;;15.80;99.90;;;;;;4877659;29;20521;-76
2021/05/10 05:27:33;;;;;;;2.10;1.92;;;15.80;99.90;;;;;;4884821;29;20029;-76
2021/05/10 05:29:59;;;;;;;2.20;2.00;;;15.80;99.90;;;;;;4896537;29;20515;-77
2021/05/10 05:32:25;;;;;;;3.72;1.52;;;15.90;99.90;;;;;;4896269;29;20029;-76
2021/05/10 05:34:51;;;;;;;2.28;1.45;;;15.90;99.90;;;;;;4896317;29;20025;-76
2021/05/10 05:37:17;;;;;;;1.90;1.70;;;15.90;99.90;;;;;;4896274;29;20051;-76
2021/05/10 05:39:43;;;;;;;4.10;1.70;;;16.00;99.90;;;;;;4896281;29;20111;-76
2021/05/10 05:42:09;;;;;;;2.35;1.70;;;16.00;99.90;;;;;;4896223;29;20029;-76
2021/05/10 05:44:37;;;;;;;3.78;2.00;;;16.00;99.90;;;;;;4879508;29;20112;-77
2021/05/10 05:47:04;;;;;;;5.25;2.20;;;16.00;99.90;;;;;;4879273;29;20029;-77
2021/05/10 05:49:34;;;;;;;4.25;2.13;;;16.00;99.90;;;;;;4896259;29;20052;-76
2021/05/10 05:52:03;;;;;;;3.45;1.80;;;16.10;99.90;;;;;;4881186;29;20378;-76
2021/05/10 05:54:29;;;;;;;4.63;2.00;;;16.10;99.90;;;;;;4899982;29;20025;-77
2021/05/10 05:56:54;;;;;;;4.15;2.15;;;16.20;99.90;;;;;;4882656;29;20047;-76
2021/05/10 05:59:20;;;;;;;4.00;1.95;;;16.30;99.90;;;;;;4900571;29;20163;-76
2021/05/10 06:01:47;;;;;;;4.13;2.33;;;16.30;99.90;;;;;;4901402;29;20071;-76
2021/05/10 06:04:13;;;;;;;3.90;2.28;;;16.40;99.90;;;;;;4900852;29;20013;-76
2021/05/10 06:06:38;;;;;;;8.55;2.30;;;16.40;99.90;;;;;;4901215;29;20124;-76
2021/05/10 06:09:07;;;;;;;1.92;1.63;;;16.50;99.90;;;;;;4900979;29;20032;-77
2021/05/10 06:11:33;;;;;;;2.88;2.20;;;16.50;99.90;;;;;;4899895;29;20033;-77
2021/05/10 06:13:59;;;;;;;4.00;2.00;;;16.70;99.90;;;;;;4899502;29;20510;-77
2021/05/10 06:16:29;;;;;;;7.07;2.40;;;16.70;99.90;;;;;;4899582;29;20038;-77
2021/05/10 06:18:56;;;;;;;2.47;2.03;;;16.80;99.90;;;;;;4899577;29;20056;-77
2021/05/10 06:21:22;;;;;;;6.25;2.08;;;16.90;99.90;;;;;;4899710;29;20025;-76
2021/05/10 06:23:49;;;;;;;4.18;2.22;;;16.90;99.90;;;;;;4899325;29;20057;-76
2021/05/10 06:26:15;;;;;;;3.83;1.73;;;17.00;99.90;;;;;;4899622;29;20350;-77
2021/05/10 06:28:41;;;;;;;3.00;1.50;;;17.00;99.80;;;;;;4885041;29;20036;-77
2021/05/10 06:31:08;;;;;;;2.97;1.58;;;17.10;99.90;;;;;;4881930;29;20433;-77
2021/05/10 06:33:34;;;;;;;7.60;2.22;;;17.10;99.90;;;;;;4865028;29;20032;-77
2021/05/10 06:36:00;;;;;;;1.85;1.75;;;17.20;99.90;;;;;;4881560;29;20485;-77
2021/05/10 06:38:25;;;;;;;3.10;1.67;;;17.20;99.80;;;;;;4881723;29;20032;-77
2021/05/10 06:40:51;;;;;;;4.50;2.83;;;17.30;99.40;;;;;;4864684;29;20029;-77
2021/05/10 06:43:17;;;;;;;5.85;2.65;;;17.40;98.10;;;;;;4880590;29;20025;-77
2021/05/10 06:45:43;;;;;;;6.32;1.90;;;17.50;95.90;;;;;;4863757;29;20606;-77
2021/05/10 06:48:09;;;;;;;5.03;1.67;;;17.50;96.40;;;;;;4880386;29;20025;-77
2021/05/10 06:50:35;;;;;;;9.75;2.45;;;17.50;95.90;;;;;;4880478;29;20481;-77
2021/05/10 06:53:00;;;;;;;3.15;1.92;;;17.60;95.90;;;;;;4880958;29;20106;-77
2021/05/10 06:55:26;;;;;;;8.30;2.20;;;17.60;96.50;;;;;;4881118;29;20485;-77
2021/05/10 06:57:52;;;;;;;4.93;2.25;;;17.70;96.60;;;;;;4880352;29;20025;-75
2021/05/10 07:00:18;;;;;;;2.25;1.98;;;17.80;97.20;;;;;;4880580;29;20037;-75
2021/05/10 07:02:44;;;;;;;2.47;1.63;;;17.80;97.50;;;;;;4863199;29;20085;-75
2021/05/10 07:05:10;;;;;;;6.45;2.30;;;17.80;96.80;;;;;;4880579;29;20033;-76
2021/05/10 07:07:35;;;;;;;2.70;1.70;;;17.90;96.80;;;;;;4880157;29;20075;-77
2021/05/10 07:10:01;;;;;;;2.40;1.90;;;18.00;96.50;;;;;;4880317;29;20457;-77
2021/05/10 07:12:28;;;;;;;7.45;2.15;;;18.10;96.30;;;;;;4881406;29;20052;-77
2021/05/10 07:14:53;;;;;;;2.67;1.52;;;18.20;95.90;;;;;;4898929;29;20031;-75
2021/05/10 07:17:19;;;;;;;3.90;2.00;;;18.30;95.90;;;;;;4899417;29;20025;-74
2021/05/10 07:19:45;;;;;;;4.13;2.30;;;18.40;96.20;;;;;;4899235;29;20076;-75
2021/05/10 07:22:11;;;;;;;4.80;2.30;;;18.50;94.90;;;;;;4899422;29;20029;-75
2021/05/10 07:24:36;;;;;;;4.22;1.88;;;18.50;95.20;;;;;;4899177;29;20071;-75
2021/05/10 07:27:02;;;;;;;4.53;1.88;;;18.60;93.00;;;;;;4899131;29;20032;-75
2021/05/10 07:29:28;;;;;;;6.53;2.80;;;18.60;93.90;;;;;;4899360;29;20433;-75
2021/05/10 07:31:54;;;;;;;7.70;2.42;;;18.60;93.40;;;;;;4899309;29;20029;-75
2021/05/10 07:34:21;;;;;;;6.85;3.03;;;18.70;93.40;;;;;;4899064;29;20377;-75
2021/05/10 07:36:47;;;;;;;3.60;2.28;;;18.70;93.40;;;;;;4898948;29;20103;-75
2021/05/10 07:39:13;;;;;;;5.45;2.33;;;18.70;93.50;;;;;;4898652;29;20556;-75
2021/05/10 07:41:38;;;;;;;2.30;2.10;;;18.80;93.60;;;;;;4899022;29;20035;-75
2021/05/10 07:44:04;;;;;;;3.50;1.88;;;18.80;93.50;;;;;;4898578;29;20055;-75
2021/05/10 07:46:31;;;;;;;3.60;1.75;;;18.90;94.30;;;;;;4881703;29;20527;-75
2021/05/10 07:48:57;;;;;;;4.05;2.15;;;19.00;93.50;;;;;;4898635;29;20084;-75
2021/05/10 07:51:23;;;;;;;3.88;2.28;;;19.00;92.60;;;;;;4898702;29;20499;-75
2021/05/10 07:53:49;;;;;;;3.50;2.20;;;19.00;92.80;;;;;;4881919;29;20127;-75
2021/05/10 07:56:14;;;;;;;4.85;2.25;;;19.10;93.60;;;;;;4898422;29;20035;-75
2021/05/10 07:58:44;;;;;;;3.35;2.55;;;19.00;93.30;;;;;;4898657;29;20025;-75
2021/05/10 08:01:10;;;;;;;16.92;3.38;;;19.10;93.50;;;;;;4881965;29;20031;-74
2021/05/10 08:03:36;;;;;;;9.38;2.33;;;19.20;94.70;;;;;;4881407;29;20025;-75
2021/05/10 08:06:02;;;;;;;4.22;2.65;;;19.10;93.50;;;;;;4898553;29;20032;-75
2021/05/10 08:08:28;;;;;;;7.22;3.40;;;19.20;93.10;;;;;;4881281;29;20037;-75
2021/05/10 08:10:54;;;;;;;4.93;2.70;;;19.20;92.40;;;;;;4898248;29;20039;-75
2021/05/10 08:13:20;;;;;;;2.38;2.13;;;19.20;92.30;;;;;;4888751;29;20063;-75
2021/05/10 08:15:46;;;;;;;4.18;2.47;;;19.20;92.00;;;;;;4886688;29;20032;-75
2021/05/10 08:18:12;;;;;;;3.75;2.25;;;19.30;92.80;;;;;;4887820;29;20029;-74
2021/05/10 08:20:43;;;;;;;3.88;2.78;;;19.40;94.30;;;;;;4888600;29;20112;-75
2021/05/10 08:23:10;;;;;;;3.20;2.67;;;19.50;94.40;;;;;;4887619;29;20029;-75
2021/05/10 08:25:37;;;;;;;5.25;2.58;;;19.50;94.70;;;;;;4886954;29;20024;-74
2021/05/10 08:28:03;;;;;;;7.30;2.35;;;19.50;93.40;;;;;;4884103;29;20393;-75
2021/05/10 08:30:28;;;;;;;7.78;2.40;;;19.60;92.70;;;;;;4886610;29;20505;-74
2021/05/10 08:32:57;;;;;;;2.80;2.47;;;19.70;93.60;;;;;;4882974;29;20070;-75
2021/05/10 08:35:23;;;;;;;6.68;2.83;;;19.80;93.90;;;;;;4886543;29;20027;-75
2021/05/10 08:37:49;;;;;;;4.65;3.28;;;19.90;93.90;;;;;;4887618;29;20460;-75
2021/05/10 08:40:15;;;;;;;3.90;2.50;;;20.00;93.40;;;;;;4883558;29;20602;-75
2021/05/10 08:42:43;;;;;;;3.28;2.75;;;20.00;91.90;;;;;;4888086;29;20025;-75
2021/05/10 08:45:09;;;;;;;4.30;2.78;;;20.00;92.00;;;;;;4886214;29;20393;-74
2021/05/10 08:47:37;;;;;;;4.70;3.30;;;20.00;92.20;;;;;;4887056;29;20089;-75
2021/05/10 08:50:05;;;;;;;4.68;2.60;;;20.00;91.40;;;;;;4895123;29;20055;-74
2021/05/10 08:52:34;;;;;;;4.85;2.78;;;20.00;91.70;;;;;;4896345;29;20063;-75
2021/05/10 08:55:00;;;;;;;3.17;2.88;;;19.90;91.40;;;;;;4886031;29;20496;-74
2021/05/10 08:57:26;;;;;;;5.18;2.85;;;19.90;91.70;;;;;;4888768;29;20561;-75
2021/05/10 08:59:51;;;;;;;5.72;3.17;;;20.00;91.70;;;;;;4887221;29;20021;-74
2021/05/10 09:02:32;;;;;;;5.45;3.20;;;20.10;91.10;;;;;;4888249;29;20028;-75
2021/05/10 09:05:10;;;;;;;5.18;3.53;;;20.10;91.20;;;;;;4873273;29;20093;-74
2021/05/10 09:07:35;;;;;;;8.80;3.63;;;20.20;90.50;;;;;;4877766;29;20067;-73
2021/05/10 09:10:06;;;;;;;8.85;3.50;;;20.20;91.70;;;;;;4878663;29;20064;-72
2021/05/10 09:12:40;;;;;;;6.90;3.22;;;20.20;92.50;;;;;;4878342;29;20029;-73
2021/05/10 09:15:27;;;;;;;3.50;2.78;;;20.10;92.40;;;;;;4883754;29;20021;-73
2021/05/10 09:18:03;;;;;;;9.98;3.42;;;20.10;92.80;;;;;;4894434;29;20457;-73
2021/05/10 09:20:40;;;;;;;7.18;3.55;;;20.20;92.50;;;;;;4895491;29;20084;-73
2021/05/10 09:23:09;;;;;;;7.90;3.53;;;20.30;90.90;;;;;;4895809;29;20520;-73
2021/05/10 09:25:37;;;;;;;11.32;3.33;;;20.40;90.90;;;;;;4896231;29;20563;-73
2021/05/10 09:28:16;;;;;;;3.65;3.33;;;20.50;90.40;;;;;;4879567;29;20032;-73
2021/05/10 09:30:53;;;;;;;3.78;2.72;;;20.70;90.50;;;;;;4896516;29;20032;-73
2021/05/10 09:33:27;;;;;;;3.65;3.05;;;20.90;91.90;;;;;;4896466;29;20454;-73
2021/05/10 09:36:07;;;;;;;4.43;2.35;;;21.00;92.80;;;;;;4896242;29;20140;-73
2021/05/10 09:38:36;;;;;;;4.40;2.70;;;21.10;90.90;;;;;;4896544;29;20116;-73
2021/05/10 09:41:06;;;;;;;5.13;3.22;;;21.10;91.20;;;;;;4896324;29;20122;-73
2021/05/10 09:43:36;;;;;;;3.45;2.35;;;21.10;88.30;;;;;;4896292;29;20393;-73
2021/05/10 09:46:05;;;;;;;5.97;2.65;;;21.10;89.20;;;;;;4896141;29;20024;-73
2021/05/10 09:48:39;;;;;;;5.30;2.53;;;21.00;90.20;;;;;;4896188;29;20033;-72
2021/05/10 09:51:10;;;;;;;3.15;2.88;;;21.10;91.80;;;;;;4896307;29;20509;-73
2021/05/10 09:54:05;;;;;;;2.47;2.20;;;21.20;92.30;;;;;;4879271;29;20159;-73
2021/05/10 09:56:35;;;;;;;3.83;2.33;;;21.30;91.30;;;;;;4879607;29;20040;-73
2021/05/10 09:59:02;;;;;;;3.17;2.30;;;21.30;88.50;;;;;;4896103;29;20024;-73
2021/05/10 10:01:40;;;;;;;3.08;2.65;;;21.50;90.30;;;;;;4879479;29;20036;-73
2021/05/10 10:04:06;;;;;;;2.58;1.80;;;21.70;89.00;;;;;;4895888;29;20021;-73
2021/05/10 10:06:32;;;;;;;3.80;2.03;;;21.90;89.30;;;;;;4896191;29;20066;-73
2021/05/10 10:08:58;;;;;;;4.20;2.13;;;22.20;89.00;;;;;;4896064;29;20056;-72
2021/05/10 10:11:26;;;;;;;2.30;2.03;;;22.40;85.80;;;;;;4896097;29;20064;-73
2021/05/10 10:13:53;;;;;;;6.13;2.10;;;22.30;86.20;;;;;;4895953;29;20032;-73
2021/05/10 10:16:24;;;;;;;2.80;2.17;;;22.40;87.00;;;;;;4895987;29;20500;-73
2021/05/10 10:18:50;;;;;;;4.13;1.98;;;22.50;85.80;;;;;;4896114;29;20019;-73
2021/05/10 10:21:19;;;;;;;2.15;1.60;;;22.50;86.30;;;;;;4895945;29;20493;-73
2021/05/10 10:23:54;;;;;;;3.47;1.58;;;22.70;85.10;;;;;;4895619;29;20044;-73
2021/05/10 10:26:22;;;;;;;3.50;2.08;;;22.90;80.30;;;;;;4895824;29;20039;-73
2021/05/10 10:28:49;;;;;;;3.15;1.42;;;23.00;80.10;;;;;;4895826;29;20025;-73
2021/05/10 10:31:38;;;;;;;3.38;1.35;;;23.10;79.40;;;;;;4896044;29;20048;-73
2021/05/10 10:34:09;;;;;;;2.60;1.75;;;23.20;81.20;;;;;;4895861;29;20059;-73
2021/05/10 10:36:59;;;;;;;2.20;1.58;;;23.40;79.10;;;;;;4895605;29;20293;-73
2021/05/10 10:39:32;;;;;;;2.10;1.40;;;23.50;77.20;;;;;;4890441;29;20039;-73
2021/05/10 10:41:58;;;;;;;1.50;1.40;;;23.70;79.20;;;;;;4899142;29;20499;-73
2021/05/10 10:44:34;;;;;;;1.88;1.77;;;23.80;78.10;;;;;;4899007;29;20024;-73
2021/05/10 10:47:01;;;;;;;4.30;1.58;;;24.00;75.10;;;;;;4899169;29;20048;-73
2021/05/10 10:49:30;;;;;;;3.50;1.33;;;24.10;75.50;;;;;;4898892;29;20464;-73
2021/05/10 10:51:56;;;;;;;2.28;1.40;;;24.20;73.60;;;;;;4882102;29;20047;-73
2021/05/10 10:54:27;;;;;;;1.38;1.35;;;24.20;70.40;;;;;;4899001;29;20020;-73
2021/05/10 10:56:58;;;;;;;4.45;1.45;;;24.20;73.80;;;;;;4898929;29;20120;-72
2021/05/10 10:59:37;;;;;;;;;;;24.30;72.50;;;;;;4899329;29;20531;-73
2021/05/10 11:02:26;;;;;;;3.35;1.75;;;24.30;72.20;;;;;;4898789;29;19907;-73
2021/05/10 11:05:10;;;;;;;9.48;1.67;;;24.40;72.90;;;;;;4898891;29;20023;-72
2021/05/10 11:07:46;;;;;;;2.63;1.90;;;24.40;74.80;;;;;;4898638;29;20033;-73
2021/05/10 11:10:11;;;;;;;3.58;2.20;;;24.50;74.90;;;;;;4898859;29;20037;-73
2021/05/10 11:12:54;;;;;;;3.20;1.88;;;24.50;71.40;;;;;;4898545;29;20258;-73
2021/05/10 11:15:35;;;;;;;4.78;1.70;;;24.50;73.50;;;;;;4898563;29;20024;-73
2021/05/10 11:18:05;;;;;;;2.13;1.58;;;24.60;69.20;;;;;;4893226;29;20013;-73
2021/05/10 11:20:41;;;;;;;1.40;1.30;;;24.60;71.20;;;;;;4879824;29;20401;-73
2021/05/10 11:23:25;;;;;;;8.10;1.58;;;24.70;72.20;;;;;;4879566;29;20044;-73
2021/05/10 11:26:14;;;;;;;1.65;1.50;;;24.80;67.00;;;;;;4879802;29;20025;-73
2021/05/10 11:28:41;;;;;;;1.40;1.30;;;24.90;66.90;;;;;;4891876;29;20048;-73
2021/05/10 11:31:13;;;;;;;2.70;1.23;;;25.00;66.60;;;;;;4898433;29;20028;-73
2021/05/10 11:34:08;;;;;;;4.20;1.83;;;25.10;66.40;;;;;;4898278;29;20033;-73
2021/05/10 11:36:47;;;;;;;3.15;1.63;;;25.30;66.90;;;;;;4896162;29;20157;-73
2021/05/10 11:39:23;;;;;;;1.50;1.40;;;25.30;67.90;;;;;;4898081;29;20020;-72
2021/05/10 11:41:49;;;;;;;1.98;1.42;;;25.30;65.90;;;;;;4898101;29;20031;-73
2021/05/10 11:44:18;;;;;;;1.48;1.38;;;25.30;66.70;;;;;;4897947;29;20025;-73
2021/05/10 11:46:50;;;;;;;1.75;1.55;;;25.40;65.90;;;;;;4898081;29;20036;-73
2021/05/10 11:49:34;;;;;;;2.10;1.42;;;25.40;66.90;;;;;;4897900;29;20056;-73
2021/05/10 11:52:06;;;;;;;2.13;1.50;;;25.30;65.20;;;;;;4897903;29;20509;-73
2021/05/10 11:54:32;;;;;;;1.85;1.35;;;25.60;64.80;;;;;;4898152;29;20037;-73
2021/05/10 11:57:02;;;;;;;1.45;1.27;;;25.80;67.60;;;;;;4897809;29;20028;-72
2021/05/10 11:59:46;;;;;;;2.17;1.67;;;26.00;64.60;;;;;;4897908;29;20121;-72
2021/05/10 12:02:23;;;;;;;3.05;1.17;;;25.90;61.40;;;;;;4897532;29;20104;-73
2021/05/10 12:04:58;;;;;;;1.20;1.10;;;26.00;63.70;;;;;;4897746;29;20492;-73
2021/05/10 12:07:27;;;;;;;1.33;1.33;;;26.30;66.10;;;;;;4897612;29;20075;-73
2021/05/10 12:09:58;;;;;;;1.65;1.30;;;26.50;64.00;;;;;;4897722;29;20080;-72
2021/05/10 12:12:33;;;;;;;1.90;1.30;;;26.70;60.40;;;;;;4897468;29;20028;-73
2021/05/10 12:15:19;;;;;;;4.13;1.83;;;26.60;60.00;;;;;;4897554;29;20064;-73
2021/05/10 12:17:51;;;;;;;6.78;1.63;;;26.70;62.50;;;;;;4897336;29;20108;-73
2021/05/10 12:20:18;;;;;;;2.45;1.40;;;26.70;61.10;;;;;;4897433;29;20032;-73
2021/05/10 12:22:49;;;;;;;1.48;1.10;;;26.70;58.80;;;;;;4897026;29;20388;-73
2021/05/10 12:25:22;;;;;;;1.52;1.30;;;26.70;62.00;;;;;;4880544;29;20032;-73
2021/05/10 12:27:58;;;;;;;1.45;1.38;;;26.80;62.50;;;;;;4896990;29;20028;-73
2021/05/10 12:30:49;;;;;;;1.75;1.33;;;26.80;62.30;;;;;;4897626;29;20518;-72
2021/05/10 12:33:25;;;;;;;3.85;1.23;;;27.00;61.40;;;;;;4888604;29;20380;-73
2021/05/10 12:36:02;;;;;;;2.97;1.30;;;27.00;59.10;;;;;;4898387;29;20028;-73
2021/05/10 12:38:30;;;;;;;1.30;1.00;;;26.90;57.40;;;;;;4898156;29;20068;-73
2021/05/10 12:40:57;;;;;;;0.93;0.93;;;26.90;58.20;;;;;;4898042;29;20119;-73
2021/05/10 12:43:24;;;;;;;1.25;1.00;;;26.70;55.60;;;;;;4898116;29;20346;-73
2021/05/10 12:45:56;;;;;;;1.67;1.13;;;26.50;55.70;;;;;;4897898;29;20056;-73
2021/05/10 12:48:23;;;;;;;;;;;26.40;57.00;;;;;;4898329;29;20039;-73
2021/05/10 12:50:50;;;;;;;3.17;1.17;;;26.40;58.10;;;;;;4897930;29;19907;-73
2021/05/10 12:53:29;;;;;;;2.25;1.33;;;26.40;58.70;;;;;;4897845;29;20029;-72
2021/05/10 12:56:06;;;;;;;1.75;1.00;;;26.70;60.50;;;;;;4897820;29;20029;-73
2021/05/10 12:58:39;;;;;;;1.75;0.85;;;26.90;58.50;;;;;;4897586;29;20100;-73
2021/05/10 13:01:15;;;;;;;1.42;1.33;;;26.90;56.30;;;;;;4897318;29;20024;-73
2021/05/10 13:03:42;;;;;;;3.63;1.40;;;26.80;56.00;;;;;;4897743;29;20092;-73
2021/05/10 13:06:09;;;;;;;1.00;0.95;;;26.30;56.30;;;;;;4897742;29;20032;-73